Time;durP1;ratioP1;P1;durP2;ratioP2;P2;SDS_P1;SDS_P2;PMS_P1;PMS_P2;Temp;Humidity;BMP_temperature;BMP_pressure;BME280_temperature;BME280_humidity;BME280_pressure;Samples;Min_cycle;Max_cycle;Signal;HPM_P1;HPM_P2
2022/12/12 00:07:55;;;;;;;36.45;22.42;;;;;;;;;;5015663;28;20114;-87
2022/12/12 00:10:49;;;;;;;31.45;21.02;;;;;;;;;;5014964;28;20034;-88
2022/12/12 00:14:18;;;;;;;35.58;23.20;;;;;;;;;;5014983;28;20040;-88
2022/12/12 00:23:05;;;;;;;39.25;27.85;;;;;;;;;;5057394;28;20400;-88
2022/12/12 00:28:37;;;;;;;100.53;52.00;;;;;;;;;;5057486;28;20024;-88
2022/12/12 00:31:32;;;;;;;76.38;42.35;;;;;;;;;;5049753;28;20029;-87
2022/12/12 00:34:40;;;;;;;40.90;24.98;;;;;;;;;;5028470;28;20033;-87
2022/12/12 00:40:40;;;;;;;46.00;28.52;;;;;;;;;;5055547;28;20044;-88
2022/12/12 00:46:30;;;;;;;45.17;29.95;;;;;;;;;;5014516;28;20028;-87
2022/12/12 00:49:36;;;;;;;39.70;24.95;;;;;;;;;;5012710;28;20033;-88
2022/12/12 01:06:57;;;;;;;35.05;22.95;;;;;;;;;;5028993;28;20041;-88
2022/12/12 01:09:55;;;;;;;36.38;23.23;;;;;;;;;;5010681;28;20188;-88
2022/12/12 01:12:41;;;;;;;34.78;22.65;;;;;;;;;;5013605;28;20041;-88
2022/12/12 01:15:08;;;;;;;35.30;22.92;;;;;;;;;;5030404;28;20089;-88
2022/12/12 01:17:41;;;;;;;31.85;22.80;;;;;;;;;;5052861;28;20029;-88
2022/12/12 01:20:38;;;;;;;38.90;24.95;;;;;;;;;;5051404;28;20033;-88
2022/12/12 01:23:33;;;;;;;38.83;25.65;;;;;;;;;;5053605;28;20097;-89
2022/12/12 01:26:21;;;;;;;32.88;21.40;;;;;;;;;;4977867;28;20035;-89
2022/12/12 01:28:50;;;;;;;31.35;20.92;;;;;;;;;;4994108;28;20026;-88
2022/12/12 01:31:46;;;;;;;37.25;22.63;;;;;;;;;;5026562;28;20088;-88
2022/12/12 01:34:32;;;;;;;30.33;22.40;;;;;;;;;;5051922;28;20025;-88
2022/12/12 01:36:59;;;;;;;33.75;22.60;;;;;;;;;;5054743;28;20427;-89
2022/12/12 01:42:28;;;;;;;42.95;25.52;;;;;;;;;;5056502;28;20492;-88
2022/12/12 01:45:24;;;;;;;37.00;24.83;;;;;;;;;;5070114;28;20025;-87
2022/12/12 01:48:36;;;;;;;31.60;21.45;;;;;;;;;;5052828;28;20029;-88
2022/12/12 01:51:40;;;;;;;33.78;22.58;;;;;;;;;;5075831;28;20043;-88
2022/12/12 01:54:18;;;;;;;38.75;23.80;;;;;;;;;;5065415;28;20040;-87
2022/12/12 02:16:04;;;;;;;32.78;21.20;;;;;;;;;;5046598;28;20028;-88
2022/12/12 02:18:50;;;;;;;31.48;20.10;;;;;;;;;;5045992;28;20041;-89
2022/12/12 02:30:55;;;;;;;41.15;25.92;;;;;;;;;;5054005;28;20036;-88
2022/12/12 02:33:28;;;;;;;39.25;26.30;;;;;;;;;;5050928;28;20033;-89
2022/12/12 02:42:37;;;;;;;61.60;38.05;;;;;;;;;;5048152;28;20040;-87
2022/12/12 02:45:49;;;;;;;52.75;34.53;;;;;;;;;;5044917;28;20108;-88
2022/12/12 02:48:42;;;;;;;44.10;27.73;;;;;;;;;;5053100;28;20037;-87
2022/12/12 02:51:13;;;;;;;44.33;28.33;;;;;;;;;;5036301;28;20033;-89
2022/12/12 02:53:42;;;;;;;47.47;29.98;;;;;;;;;;5046215;28;20048;-89
2022/12/12 03:08:24;;;;;;;34.67;20.52;;;;;;;;;;5057211;28;20375;-88
2022/12/12 03:10:55;;;;;;;35.88;22.80;;;;;;;;;;5039374;28;20021;-88
2022/12/12 03:13:29;;;;;;;32.17;21.30;;;;;;;;;;5039006;28;20025;-88
2022/12/12 03:16:02;;;;;;;32.75;21.30;;;;;;;;;;5039394;28;20025;-88
2022/12/12 03:18:35;;;;;;;31.83;21.70;;;;;;;;;;5039146;28;20056;-88
2022/12/12 03:21:10;;;;;;;34.42;21.48;;;;;;;;;;5038880;28;20029;-88
2022/12/12 03:23:41;;;;;;;35.60;23.25;;;;;;;;;;5039305;28;20037;-87
2022/12/12 03:26:19;;;;;;;32.40;20.27;;;;;;;;;;5038822;28;20033;-88
2022/12/12 03:28:45;;;;;;;35.45;21.23;;;;;;;;;;5039050;28;20074;-88
2022/12/12 03:31:12;;;;;;;38.03;24.75;;;;;;;;;;5039236;28;20021;-90
2022/12/12 03:33:38;;;;;;;36.30;24.23;;;;;;;;;;5038949;28;20025;-87
2022/12/12 03:36:11;;;;;;;42.38;24.83;;;;;;;;;;5039007;28;20021;-88
2022/12/12 03:38:41;;;;;;;45.67;29.50;;;;;;;;;;5038997;28;20025;-89
2022/12/12 03:41:11;;;;;;;45.20;28.67;;;;;;;;;;5038887;28;20116;-90
2022/12/12 03:43:40;;;;;;;47.05;29.10;;;;;;;;;;5039059;28;20037;-88
2022/12/12 03:46:13;;;;;;;47.22;28.98;;;;;;;;;;5038812;28;20024;-87
2022/12/12 03:48:42;;;;;;;42.55;27.27;;;;;;;;;;5071849;28;20025;-89
2022/12/12 03:51:11;;;;;;;44.45;27.35;;;;;;;;;;5038734;28;20053;-88
2022/12/12 03:53:40;;;;;;;39.10;24.63;;;;;;;;;;5038722;28;20048;-88
2022/12/12 03:56:30;;;;;;;43.13;25.80;;;;;;;;;;5038427;28;20469;-90
2022/12/12 03:59:00;;;;;;;38.65;23.55;;;;;;;;;;5028406;28;20029;-88
2022/12/12 04:01:28;;;;;;;35.75;22.55;;;;;;;;;;5038639;28;20031;-88
2022/12/12 04:04:13;;;;;;;42.33;25.83;;;;;;;;;;5038229;28;20424;-88
2022/12/12 04:06:47;;;;;;;43.35;26.92;;;;;;;;;;5038096;28;20037;-87
2022/12/12 04:14:53;;;;;;;44.60;26.15;;;;;;;;;;5049803;28;20171;-88
2022/12/12 04:17:23;;;;;;;42.30;28.00;;;;;;;;;;5038757;28;20163;-89
2022/12/12 04:28:34;;;;;;;41.05;26.20;;;;;;;;;;5026861;28;20503;-88
2022/12/12 04:31:03;;;;;;;43.47;28.98;;;;;;;;;;5038039;28;20019;-87
2022/12/12 04:33:35;;;;;;;51.75;33.53;;;;;;;;;;5038046;28;20385;-88
2022/12/12 04:36:02;;;;;;;59.00;34.63;;;;;;;;;;5033253;28;20091;-89
2022/12/12 04:38:29;;;;;;;67.45;38.03;;;;;;;;;;5018052;28;20034;-90
2022/12/12 04:40:56;;;;;;;93.47;49.72;;;;;;;;;;5017312;28;20034;-88
2022/12/12 04:43:27;;;;;;;62.60;36.00;;;;;;;;;;5017605;28;20025;-88
2022/12/12 04:45:55;;;;;;;46.33;29.20;;;;;;;;;;5017861;28;20032;-90
2022/12/12 04:48:33;;;;;;;52.58;28.58;;;;;;;;;;5031018;28;20032;-87
2022/12/12 04:51:00;;;;;;;51.47;29.40;;;;;;;;;;5037221;28;20032;-87
2022/12/12 04:53:36;;;;;;;50.97;29.27;;;;;;;;;;5036969;28;20029;-87
2022/12/12 04:56:07;;;;;;;58.22;35.22;;;;;;;;;;5037625;28;20384;-87
2022/12/12 04:58:33;;;;;;;46.25;29.48;;;;;;;;;;5037400;28;20017;-87
2022/12/12 05:01:10;;;;;;;49.58;28.70;;;;;;;;;;5037615;28;20440;-87
2022/12/12 05:03:37;;;;;;;60.60;31.20;;;;;;;;;;5036959;28;20056;-88
2022/12/12 05:06:07;;;;;;;46.30;27.65;;;;;;;;;;5037024;28;20100;-89
2022/12/12 05:08:36;;;;;;;45.47;28.45;;;;;;;;;;5036883;28;20035;-86
2022/12/12 05:11:04;;;;;;;38.45;23.77;;;;;;;;;;5054847;28;20047;-86
2022/12/12 05:13:32;;;;;;;38.45;24.00;;;;;;;;;;5037251;28;20047;-90
2022/12/12 05:15:59;;;;;;;41.60;24.85;;;;;;;;;;5037212;28;20116;-86
2022/12/12 05:18:26;;;;;;;37.60;22.88;;;;;;;;;;5036766;28;20052;-88
2022/12/12 05:20:53;;;;;;;37.95;24.25;;;;;;;;;;5036984;28;20029;-89
2022/12/12 05:23:28;;;;;;;36.80;22.00;;;;;;;;;;5054558;28;20029;-88
2022/12/12 05:29:10;;;;;;;38.72;24.48;;;;;;;;;;5050447;28;20063;-89
2022/12/12 05:31:45;;;;;;;38.67;23.98;;;;;;;;;;5053168;28;20082;-88
2022/12/12 05:34:12;;;;;;;39.10;23.98;;;;;;;;;;5036728;28;20083;-88
2022/12/12 05:36:38;;;;;;;36.42;22.55;;;;;;;;;;5036827;28;20031;-86
2022/12/12 05:39:04;;;;;;;42.03;24.58;;;;;;;;;;5036296;28;20031;-88
2022/12/12 05:41:30;;;;;;;47.88;29.27;;;;;;;;;;5036352;28;20032;-89
2022/12/12 05:43:56;;;;;;;48.47;30.17;;;;;;;;;;5036685;28;20062;-88
2022/12/12 05:46:23;;;;;;;46.40;30.70;;;;;;;;;;5036645;28;20021;-88
2022/12/12 05:48:50;;;;;;;50.15;30.88;;;;;;;;;;5036664;28;20044;-87
2022/12/12 05:54:04;;;;;;;55.10;32.17;;;;;;;;;;5054169;28;20047;-88
2022/12/12 05:56:31;;;;;;;53.78;32.97;;;;;;;;;;5054153;28;20473;-90
2022/12/12 05:58:57;;;;;;;54.75;34.75;;;;;;;;;;5036299;28;20119;-88
2022/12/12 06:01:23;;;;;;;60.40;35.10;;;;;;;;;;5036180;28;20545;-88
2022/12/12 06:03:50;;;;;;;52.53;31.17;;;;;;;;;;5036057;28;20040;-89
2022/12/12 06:06:16;;;;;;;52.70;34.05;;;;;;;;;;5026390;28;20397;-88
2022/12/12 06:08:42;;;;;;;52.00;33.67;;;;;;;;;;5016529;28;20021;-89
2022/12/12 06:11:08;;;;;;;53.75;34.53;;;;;;;;;;5016294;28;20026;-88
2022/12/12 06:13:35;;;;;;;92.85;54.63;;;;;;;;;;5018579;28;20052;-89
2022/12/12 06:16:05;;;;;;;78.57;49.97;;;;;;;;;;5016442;28;20021;-88
2022/12/12 06:18:33;;;;;;;98.95;62.67;;;;;;;;;;5015775;28;20029;-88
2022/12/12 06:21:04;;;;;;;70.28;44.28;;;;;;;;;;5016280;28;20029;-86
2022/12/12 06:23:34;;;;;;;58.80;34.28;;;;;;;;;;5034269;28;20049;-89
2022/12/12 06:26:03;;;;;;;55.33;33.30;;;;;;;;;;5033944;28;20029;-88
2022/12/12 06:28:31;;;;;;;54.55;32.88;;;;;;;;;;5033744;28;20022;-88
2022/12/12 06:30:57;;;;;;;51.42;32.58;;;;;;;;;;5022837;28;20052;-86
2022/12/12 06:33:23;;;;;;;55.60;33.80;;;;;;;;;;5042939;28;20040;-86
2022/12/12 06:36:13;;;;;;;70.32;40.22;;;;;;;;;;5022459;28;20034;-88
2022/12/12 06:38:40;;;;;;;74.28;46.03;;;;;;;;;;5020374;28;20024;-88
2022/12/12 06:41:14;;;;;;;81.72;49.72;;;;;;;;;;5020158;28;20080;-89
2022/12/12 06:43:40;;;;;;;75.68;45.20;;;;;;;;;;5019662;28;20033;-88
2022/12/12 06:46:07;;;;;;;64.85;41.78;;;;;;;;;;5020229;28;20028;-88
2022/12/12 06:48:34;;;;;;;66.13;41.15;;;;;;;;;;5020013;28;20116;-88
2022/12/12 06:54:16;;;;;;;60.03;37.00;;;;;;;;;;5033913;28;20603;-88
2022/12/12 06:56:42;;;;;;;59.40;39.55;;;;;;;;;;5019670;28;20034;-88
2022/12/12 06:59:10;;;;;;;77.40;46.75;;;;;;;;;;5019863;28;20028;-89
2022/12/12 07:01:36;;;;;;;158.98;96.07;;;;;;;;;;5019590;28;20389;-87
2022/12/12 07:04:02;;;;;;;161.73;89.22;;;;;;;;;;5016524;28;20125;-89
2022/12/12 07:06:29;;;;;;;196.05;116.22;;;;;;;;;;5018573;28;20030;-89
2022/12/12 07:08:57;;;;;;;90.65;54.05;;;;;;;;;;5019915;28;20025;-89
2022/12/12 07:11:24;;;;;;;70.65;41.85;;;;;;;;;;5019841;28;20048;-90
2022/12/12 07:13:51;;;;;;;52.95;32.30;;;;;;;;;;5019773;28;20022;-90
2022/12/12 07:16:17;;;;;;;49.17;26.98;;;;;;;;;;5020231;28;20026;-89
2022/12/12 07:18:43;;;;;;;47.95;28.45;;;;;;;;;;5019952;28;20026;-89
2022/12/12 07:21:12;;;;;;;45.30;27.83;;;;;;;;;;5019878;28;20021;-91
2022/12/12 07:23:38;;;;;;;48.45;28.98;;;;;;;;;;5019591;28;20061;-89
2022/12/12 07:26:09;;;;;;;43.78;25.85;;;;;;;;;;5052705;28;20026;-89
2022/12/12 07:28:37;;;;;;;52.03;30.15;;;;;;;;;;5019560;28;20465;-89
2022/12/12 07:31:25;;;;;;;51.28;31.63;;;;;;;;;;5051972;28;20029;-89
2022/12/12 07:33:53;;;;;;;89.57;58.35;;;;;;;;;;5030232;28;20029;-89
2022/12/12 07:36:19;;;;;;;64.32;39.28;;;;;;;;;;5018969;28;20388;-90
2022/12/12 07:38:45;;;;;;;75.45;43.70;;;;;;;;;;5018887;28;20025;-87
2022/12/12 07:41:13;;;;;;;82.95;45.65;;;;;;;;;;5018987;28;20029;-90
2022/12/12 07:43:40;;;;;;;66.65;39.53;;;;;;;;;;5018393;28;20117;-90
2022/12/12 07:46:07;;;;;;;65.65;39.17;;;;;;;;;;5051395;28;20026;-88
2022/12/12 07:48:33;;;;;;;59.83;36.08;;;;;;;;;;5052154;28;20026;-88
2022/12/12 07:51:00;;;;;;;63.75;37.58;;;;;;;;;;5052126;28;20060;-88
2022/12/12 07:53:26;;;;;;;66.63;40.47;;;;;;;;;;5052099;28;20021;-89
2022/12/12 07:55:53;;;;;;;59.33;35.28;;;;;;;;;;5019153;28;20083;-88
2022/12/12 07:58:19;;;;;;;73.20;47.10;;;;;;;;;;5021159;28;20017;-89
2022/12/12 08:00:45;;;;;;;65.07;37.47;;;;;;;;;;5038733;28;20108;-88
2022/12/12 08:03:11;;;;;;;56.97;33.13;;;;;;;;;;5038255;28;20128;-89
2022/12/12 08:05:39;;;;;;;52.05;32.58;;;;;;;;;;5038796;28;20028;-88
2022/12/12 08:08:05;;;;;;;55.00;32.60;;;;;;;;;;5026588;28;20032;-89
2022/12/12 08:10:32;;;;;;;59.55;39.08;;;;;;;;;;5035422;28;20397;-88
2022/12/12 08:12:58;;;;;;;56.70;38.97;;;;;;;;;;5020125;28;20033;-85
2022/12/12 08:15:24;;;;;;;57.15;33.45;;;;;;;;;;5072762;28;20021;-88
2022/12/12 08:17:50;;;;;;;60.97;36.22;;;;;;;;;;5071394;28;20050;-88
2022/12/12 08:20:16;;;;;;;64.70;38.50;;;;;;;;;;5071478;28;20107;-88
2022/12/12 08:22:49;;;;;;;54.45;32.22;;;;;;;;;;5071557;28;20534;-89
2022/12/12 08:25:32;;;;;;;58.35;33.13;;;;;;;;;;5038833;28;20094;-89
2022/12/12 08:33:50;;;;;;;65.18;33.40;;;;;;;;;;5055841;28;20380;-87
2022/12/12 08:36:16;;;;;;;59.72;33.63;;;;;;;;;;5037045;28;20456;-83
2022/12/12 08:38:43;;;;;;;58.67;31.33;;;;;;;;;;5037434;28;20024;-86
2022/12/12 08:41:09;;;;;;;80.57;47.63;;;;;;;;;;5037305;28;20044;-86
2022/12/12 08:43:36;;;;;;;53.05;30.48;;;;;;;;;;5037561;28;20032;-89
2022/12/12 08:46:03;;;;;;;49.63;29.10;;;;;;;;;;5037601;28;20036;-88
2022/12/12 08:48:29;;;;;;;48.58;27.77;;;;;;;;;;5036425;28;20021;-87
2022/12/12 08:50:56;;;;;;;66.63;43.78;;;;;;;;;;5037886;28;20025;-88
2022/12/12 08:53:23;;;;;;;42.65;27.40;;;;;;;;;;5036427;28;20382;-87
2022/12/12 08:55:49;;;;;;;59.38;35.85;;;;;;;;;;5036536;28;20032;-88
2022/12/12 08:58:16;;;;;;;45.08;29.92;;;;;;;;;;5037982;28;20031;-88
2022/12/12 09:00:42;;;;;;;50.38;30.35;;;;;;;;;;5038077;28;20063;-87
2022/12/12 09:03:08;;;;;;;58.38;39.50;;;;;;;;;;5038164;28;20063;-87
2022/12/12 09:05:34;;;;;;;94.75;58.92;;;;;;;;;;5038091;28;20021;-87
2022/12/12 09:08:01;;;;;;;71.43;42.65;;;;;;;;;;5038108;28;20489;-86
2022/12/12 09:10:27;;;;;;;64.10;37.00;;;;;;;;;;5038381;28;20021;-87
2022/12/12 09:12:54;;;;;;;68.82;39.53;;;;;;;;;;5036950;28;20017;-87
2022/12/12 09:15:20;;;;;;;70.38;44.55;;;;;;;;;;5037825;28;20032;-84
2022/12/12 09:17:46;;;;;;;85.68;50.38;;;;;;;;;;5036890;28;20029;-85
2022/12/12 09:20:12;;;;;;;93.25;54.17;;;;;;;;;;5037341;28;20017;-87
2022/12/12 09:22:39;;;;;;;108.43;65.18;;;;;;;;;;5037143;28;20031;-85
2022/12/12 09:25:05;;;;;;;94.07;62.97;;;;;;;;;;5037338;28;20526;-87
2022/12/12 09:27:31;;;;;;;75.25;48.95;;;;;;;;;;5036891;28;20115;-87
2022/12/12 09:29:58;;;;;;;67.95;45.50;;;;;;;;;;5036973;28;20112;-88
2022/12/12 09:38:31;;;;;;;;;;;;;;;;;;5054228;28;20024;-83
2022/12/12 09:41:29;;;;;;;62.55;41.92;;;;;;;;;;5037528;28;20405;-86
2022/12/12 09:44:23;;;;;;;51.20;33.97;;;;;;;;;;5037690;28;20488;-86
2022/12/12 09:47:28;;;;;;;59.72;35.88;;;;;;;;;;5038458;28;20025;-85
2022/12/12 09:50:45;;;;;;;59.55;36.63;;;;;;;;;;5055378;28;20029;-86
2022/12/12 09:53:52;;;;;;;56.05;37.78;;;;;;;;;;5043444;28;20029;-85
2022/12/12 09:56:27;;;;;;;46.72;31.75;;;;;;;;;;5035866;28;20484;-81
2022/12/12 09:59:15;;;;;;;48.92;34.75;;;;;;;;;;5036141;28;20021;-83
2022/12/12 10:02:47;;;;;;;59.42;45.08;;;;;;;;;;5047451;28;20060;-85
2022/12/12 10:09:15;;;;;;;64.18;44.60;;;;;;;;;;5052118;28;20507;-86
2022/12/12 10:12:18;;;;;;;55.72;41.45;;;;;;;;;;5051825;28;20040;-86
2022/12/12 10:18:15;;;;;;;62.80;41.80;;;;;;;;;;5055522;28;20094;-87
2022/12/12 10:24:11;;;;;;;;;;;;;;;;;;5056486;28;20035;-87
2022/12/12 10:44:59;;;;;;;29.80;19.90;;;;;;;;;;5038562;28;19912;-85
2022/12/12 10:53:47;;;;;;;25.60;15.93;;;;;;;;;;5053653;28;20431;-86
2022/12/12 11:02:43;;;;;;;35.10;24.83;;;;;;;;;;5053508;28;20407;-86
2022/12/12 13:01:49;;;;;;;178.57;92.78;;;;;;;;;;5041686;28;19912;-86
2022/12/12 13:08:05;;;;;;;145.88;84.20;;;;;;;;;;4951093;29;20022;-85
2022/12/12 13:33:59;;;;;;;50.70;34.83;;;;;;;;;;4937747;29;20145;-85
2022/12/12 13:40:19;;;;;;;97.30;67.85;;;;;;;;;;4958511;29;20166;-85
2022/12/12 13:43:30;;;;;;;93.45;60.35;;;;;;;;;;4985667;28;20041;-85
2022/12/12 13:59:03;;;;;;;36.45;25.05;;;;;;;;;;4942738;29;20079;-86
2022/12/12 14:37:44;;;;;;;65.80;45.10;;;77.60;2227.20;;;;;;4879730;29;20044;-87
2022/12/12 14:58:25;;;;;;;61.13;44.22;;;77.50;2227.20;;;;;;4978987;28;20105;-85
2022/12/12 15:05:25;;;;;;;98.43;63.13;;;77.00;2227.20;;;;;;4861186;29;20203;-84
2022/12/12 15:09:06;;;;;;;82.18;54.13;;;77.00;2227.20;;;;;;4846387;29;20046;-82
2022/12/12 15:12:43;;;;;;;64.60;43.58;;;76.80;2227.20;;;;;;4837863;29;20038;-81
2022/12/12 15:16:09;;;;;;;52.20;35.00;;;76.90;2227.20;;;;;;4846209;29;20487;-82
2022/12/12 15:23:03;;;;;;;93.85;57.13;;;77.10;2227.20;;;;;;4851265;29;20117;-84
2022/12/12 15:37:26;;;;;;;133.15;74.97;;;77.40;2227.20;;;;;;4868983;29;20476;-82
2022/12/12 15:41:05;;;;;;;140.05;72.57;;;77.30;2227.20;;;;;;4849625;29;20069;-84
2022/12/12 15:51:45;;;;;;;52.13;34.38;;;77.40;2227.20;;;;;;4844607;29;20068;-84
2022/12/12 15:58:37;;;;;;;62.05;41.88;;;77.40;2227.20;;;;;;4839139;29;20494;-84
2022/12/12 16:30:16;;;;;;;56.45;34.75;;;77.20;2227.20;;;;;;4731243;30;20390;-82
2022/12/12 16:40:42;;;;;;;63.42;38.97;;;77.10;2227.20;;;;;;4767724;29;20069;-81
2022/12/12 16:43:39;;;;;;;49.75;32.42;;;77.00;2227.20;;;;;;4784827;30;20607;-80
2022/12/12 16:52:49;;;;;;;92.45;53.38;;;77.20;2227.20;;;;;;4770735;30;20046;-77
2022/12/12 17:02:43;;;;;;;65.78;34.80;;;77.10;2227.20;;;;;;4801995;29;20121;-80
2022/12/12 17:12:51;;;;;;;70.70;40.65;;;77.00;2227.20;;;;;;4800216;29;20085;-80
2022/12/12 17:19:55;;;;;;;33.58;22.45;;;77.00;2227.20;;;;;;4823127;29;20063;-78
2022/12/12 17:30:13;;;;;;;60.95;36.55;;;76.80;2227.20;;;;;;4824086;29;20117;-80
2022/12/12 17:33:47;;;;;;;51.80;32.97;;;52.10;2227.20;;;;;;4817945;29;20043;-77
2022/12/12 17:54:21;;;;;;;45.88;29.38;;;77.00;2227.20;;;;;;4742953;30;20047;-83
2022/12/12 18:22:53;;;;;;;45.22;26.00;;;76.90;2227.20;;;;;;4860687;29;20060;-81
2022/12/12 21:35:10;;;;;;;58.15;36.70;;;77.10;2227.20;;;;;;4940885;29;20042;-82
2022/12/12 21:45:22;;;;;;;46.80;29.10;;;77.10;2227.20;;;;;;4924220;29;20047;-82
2022/12/12 21:52:16;;;;;;;46.40;28.75;;;77.10;2227.20;;;;;;4902340;29;20400;-82
2022/12/12 21:58:51;;;;;;;36.75;24.15;;;77.00;2227.20;;;;;;4909591;29;20385;-80
2022/12/12 22:02:31;;;;;;;30.42;18.58;;;77.00;2227.20;;;;;;4893350;29;20037;-80
2022/12/12 22:06:08;;;;;;;72.03;36.70;;;77.00;2227.20;;;;;;4895638;29;20068;-81
2022/12/12 22:19:44;;;;;;;62.00;30.25;;;77.00;2227.20;;;;;;4987097;28;20041;-80
2022/12/12 22:26:28;;;;;;;86.65;42.78;;;77.00;2227.20;;;;;;4919634;29;20040;-81
2022/12/12 22:33:10;;;;;;;74.95;41.97;;;76.80;2227.20;;;;;;4826530;29;20067;-83
2022/12/12 23:00:37;;;;;;;74.45;41.22;;;52.00;2227.20;;;;;;4739731;30;20502;-85
